sensor_id;sensor_type;location;lat;lon;timestamp;temperature;humidity
7562;DHT22;3822;48.784;9.174;2023-08-06T00:01:22;20.00;98.70
7562;DHT22;3822;48.784;9.174;2023-08-06T00:03:49;19.90;98.70
7562;DHT22;3822;48.784;9.174;2023-08-06T00:06:15;19.90;98.80
7562;DHT22;3822;48.784;9.174;2023-08-06T00:08:41;19.90;98.80
7562;DHT22;3822;48.784;9.174;2023-08-06T00:11:10;19.80;98.80
7562;DHT22;3822;48.784;9.174;2023-08-06T00:13:36;19.80;98.90
7562;DHT22;3822;48.784;9.174;2023-08-06T00:16:09;19.80;98.90
7562;DHT22;3822;48.784;9.174;2023-08-06T00:18:39;19.80;98.90
7562;DHT22;3822;48.784;9.174;2023-08-06T00:21:05;19.70;98.80
7562;DHT22;3822;48.784;9.174;2023-08-06T00:23:32;19.60;98.70
7562;DHT22;3822;48.784;9.174;2023-08-06T00:26:00;19.60;98.60
7562;DHT22;3822;48.784;9.174;2023-08-06T00:28:26;19.50;98.50
7562;DHT22;3822;48.784;9.174;2023-08-06T00:30:55;19.40;98.50
7562;DHT22;3822;48.784;9.174;2023-08-06T00:33:22;19.40;98.50
7562;DHT22;3822;48.784;9.174;2023-08-06T00:35:49;19.40;98.50
7562;DHT22;3822;48.784;9.174;2023-08-06T00:38:15;19.40;98.50
7562;DHT22;3822;48.784;9.174;2023-08-06T00:40:41;19.30;98.40
7562;DHT22;3822;48.784;9.174;2023-08-06T00:43:08;19.20;98.30
7562;DHT22;3822;48.784;9.174;2023-08-06T00:45:35;19.20;98.30
7562;DHT22;3822;48.784;9.174;2023-08-06T00:48:03;19.10;98.10
7562;DHT22;3822;48.784;9.174;2023-08-06T00:50:31;19.10;98.10
7562;DHT22;3822;48.784;9.174;2023-08-06T00:52:57;19.10;98.00
7562;DHT22;3822;48.784;9.174;2023-08-06T00:55:24;19.10;98.00
7562;DHT22;3822;48.784;9.174;2023-08-06T00:57:50;19.00;97.90
7562;DHT22;3822;48.784;9.174;2023-08-06T01:00:19;19.10;97.90
7562;DHT22;3822;48.784;9.174;2023-08-06T01:02:48;19.00;97.80
7562;DHT22;3822;48.784;9.174;2023-08-06T01:05:17;19.10;97.80
7562;DHT22;3822;48.784;9.174;2023-08-06T01:13:10;19.00;97.60
7562;DHT22;3822;48.784;9.174;2023-08-06T01:15:46;19.00;97.60
7562;DHT22;3822;48.784;9.174;2023-08-06T01:18:15;19.00;97.60
7562;DHT22;3822;48.784;9.174;2023-08-06T01:20:41;18.90;97.50
7562;DHT22;3822;48.784;9.174;2023-08-06T01:23:10;18.90;97.50
7562;DHT22;3822;48.784;9.174;2023-08-06T01:31:10;18.90;97.50
7562;DHT22;3822;48.784;9.174;2023-08-06T01:33:41;18.80;97.40
7562;DHT22;3822;48.784;9.174;2023-08-06T01:36:13;18.80;97.50
7562;DHT22;3822;48.784;9.174;2023-08-06T01:38:41;18.70;97.50
7562;DHT22;3822;48.784;9.174;2023-08-06T01:41:07;18.70;97.60
7562;DHT22;3822;48.784;9.174;2023-08-06T01:43:34;18.60;97.60
7562;DHT22;3822;48.784;9.174;2023-08-06T01:46:00;18.60;97.60
7562;DHT22;3822;48.784;9.174;2023-08-06T01:48:26;18.60;97.50
7562;DHT22;3822;48.784;9.174;2023-08-06T01:50:52;18.50;97.30
7562;DHT22;3822;48.784;9.174;2023-08-06T01:53:19;18.50;97.30
7562;DHT22;3822;48.784;9.174;2023-08-06T01:55:50;18.40;97.10
7562;DHT22;3822;48.784;9.174;2023-08-06T01:58:16;18.40;97.00
7562;DHT22;3822;48.784;9.174;2023-08-06T02:00:43;18.40;96.90
7562;DHT22;3822;48.784;9.174;2023-08-06T02:03:11;18.30;96.80
7562;DHT22;3822;48.784;9.174;2023-08-06T02:05:37;18.30;96.80
7562;DHT22;3822;48.784;9.174;2023-08-06T02:08:04;18.30;96.70
7562;DHT22;3822;48.784;9.174;2023-08-06T02:10:30;18.30;96.70
7562;DHT22;3822;48.784;9.174;2023-08-06T02:12:56;18.30;96.70
7562;DHT22;3822;48.784;9.174;2023-08-06T02:15:22;18.20;96.70
7562;DHT22;3822;48.784;9.174;2023-08-06T02:17:49;18.20;96.70
7562;DHT22;3822;48.784;9.174;2023-08-06T02:20:15;18.20;96.70
7562;DHT22;3822;48.784;9.174;2023-08-06T02:22:44;18.20;96.70
7562;DHT22;3822;48.784;9.174;2023-08-06T02:25:10;18.20;96.70
7562;DHT22;3822;48.784;9.174;2023-08-06T02:27:40;18.20;96.70
7562;DHT22;3822;48.784;9.174;2023-08-06T02:30:07;18.20;96.70
7562;DHT22;3822;48.784;9.174;2023-08-06T02:32:33;18.20;96.70
7562;DHT22;3822;48.784;9.174;2023-08-06T02:35:01;18.10;96.60
7562;DHT22;3822;48.784;9.174;2023-08-06T02:37:30;18.10;96.60
7562;DHT22;3822;48.784;9.174;2023-08-06T02:39:59;18.10;96.60
7562;DHT22;3822;48.784;9.174;2023-08-06T02:42:25;18.10;96.60
7562;DHT22;3822;48.784;9.174;2023-08-06T02:44:52;18.10;96.60
7562;DHT22;3822;48.784;9.174;2023-08-06T02:47:23;18.10;96.50
7562;DHT22;3822;48.784;9.174;2023-08-06T02:49:50;18.10;96.50
7562;DHT22;3822;48.784;9.174;2023-08-06T02:52:18;18.10;96.40
7562;DHT22;3822;48.784;9.174;2023-08-06T02:54:45;18.10;96.40
7562;DHT22;3822;48.784;9.174;2023-08-06T02:57:11;18.10;96.50
7562;DHT22;3822;48.784;9.174;2023-08-06T02:59:37;18.10;96.40
7562;DHT22;3822;48.784;9.174;2023-08-06T03:02:04;18.10;96.40
7562;DHT22;3822;48.784;9.174;2023-08-06T03:04:30;18.10;96.40
7562;DHT22;3822;48.784;9.174;2023-08-06T03:06:57;18.00;96.30
7562;DHT22;3822;48.784;9.174;2023-08-06T03:09:23;18.00;96.30
7562;DHT22;3822;48.784;9.174;2023-08-06T03:11:49;18.00;96.30
7562;DHT22;3822;48.784;9.174;2023-08-06T03:14:15;18.00;96.30
7562;DHT22;3822;48.784;9.174;2023-08-06T03:16:42;18.00;96.20
7562;DHT22;3822;48.784;9.174;2023-08-06T03:19:08;17.90;96.20
7562;DHT22;3822;48.784;9.174;2023-08-06T03:21:34;17.90;96.20
7562;DHT22;3822;48.784;9.174;2023-08-06T03:24:00;17.80;96.10
7562;DHT22;3822;48.784;9.174;2023-08-06T03:26:27;17.80;96.10
7562;DHT22;3822;48.784;9.174;2023-08-06T03:28:53;17.80;96.10
7562;DHT22;3822;48.784;9.174;2023-08-06T03:31:19;17.80;96.10
7562;DHT22;3822;48.784;9.174;2023-08-06T03:33:45;17.80;96.00
7562;DHT22;3822;48.784;9.174;2023-08-06T03:36:12;17.80;96.00
7562;DHT22;3822;48.784;9.174;2023-08-06T03:38:40;17.80;96.00
7562;DHT22;3822;48.784;9.174;2023-08-06T03:41:07;17.80;96.00
7562;DHT22;3822;48.784;9.174;2023-08-06T03:43:33;17.70;95.90
7562;DHT22;3822;48.784;9.174;2023-08-06T03:45:59;17.70;96.00
7562;DHT22;3822;48.784;9.174;2023-08-06T03:48:25;17.70;96.00
7562;DHT22;3822;48.784;9.174;2023-08-06T03:50:54;17.70;96.10
7562;DHT22;3822;48.784;9.174;2023-08-06T03:53:22;17.70;96.10
7562;DHT22;3822;48.784;9.174;2023-08-06T03:55:48;17.70;96.10
7562;DHT22;3822;48.784;9.174;2023-08-06T03:58:15;17.60;96.10
7562;DHT22;3822;48.784;9.174;2023-08-06T04:00:45;17.70;96.20
7562;DHT22;3822;48.784;9.174;2023-08-06T04:03:12;17.60;96.20
7562;DHT22;3822;48.784;9.174;2023-08-06T04:05:38;17.60;96.20
7562;DHT22;3822;48.784;9.174;2023-08-06T04:08:07;17.60;96.30
7562;DHT22;3822;48.784;9.174;2023-08-06T04:10:33;17.70;96.30
7562;DHT22;3822;48.784;9.174;2023-08-06T04:12:59;17.70;96.40
7562;DHT22;3822;48.784;9.174;2023-08-06T04:15:26;17.70;96.50
7562;DHT22;3822;48.784;9.174;2023-08-06T04:17:52;17.70;96.60
7562;DHT22;3822;48.784;9.174;2023-08-06T04:20:18;17.70;96.70
7562;DHT22;3822;48.784;9.174;2023-08-06T04:22:44;17.70;96.70
7562;DHT22;3822;48.784;9.174;2023-08-06T04:25:11;17.80;96.80
7562;DHT22;3822;48.784;9.174;2023-08-06T04:27:37;17.80;96.90
7562;DHT22;3822;48.784;9.174;2023-08-06T04:30:07;17.80;97.00
7562;DHT22;3822;48.784;9.174;2023-08-06T04:32:33;17.80;97.00
7562;DHT22;3822;48.784;9.174;2023-08-06T04:35:00;17.80;96.90
7562;DHT22;3822;48.784;9.174;2023-08-06T04:37:26;17.80;96.90
7562;DHT22;3822;48.784;9.174;2023-08-06T04:39:52;17.80;96.90
7562;DHT22;3822;48.784;9.174;2023-08-06T04:42:18;17.80;96.90
7562;DHT22;3822;48.784;9.174;2023-08-06T04:44:45;17.80;96.90
7562;DHT22;3822;48.784;9.174;2023-08-06T04:47:11;17.80;96.90
7562;DHT22;3822;48.784;9.174;2023-08-06T04:49:39;17.80;97.00
7562;DHT22;3822;48.784;9.174;2023-08-06T04:52:06;17.80;97.00
7562;DHT22;3822;48.784;9.174;2023-08-06T04:54:37;17.80;97.10
7562;DHT22;3822;48.784;9.174;2023-08-06T04:57:03;17.80;97.20
7562;DHT22;3822;48.784;9.174;2023-08-06T04:59:30;17.80;97.20
7562;DHT22;3822;48.784;9.174;2023-08-06T05:01:56;17.80;97.30
7562;DHT22;3822;48.784;9.174;2023-08-06T05:04:22;17.70;97.30
7562;DHT22;3822;48.784;9.174;2023-08-06T05:06:48;17.70;97.40
7562;DHT22;3822;48.784;9.174;2023-08-06T05:09:15;17.70;97.40
7562;DHT22;3822;48.784;9.174;2023-08-06T05:11:41;17.70;97.40
7562;DHT22;3822;48.784;9.174;2023-08-06T05:14:07;17.60;97.40
7562;DHT22;3822;48.784;9.174;2023-08-06T05:16:36;17.70;97.40
7562;DHT22;3822;48.784;9.174;2023-08-06T05:19:02;17.70;97.40
7562;DHT22;3822;48.784;9.174;2023-08-06T05:21:28;17.70;97.50
7562;DHT22;3822;48.784;9.174;2023-08-06T05:23:55;17.70;97.50
7562;DHT22;3822;48.784;9.174;2023-08-06T05:26:21;17.70;97.50
7562;DHT22;3822;48.784;9.174;2023-08-06T05:28:47;17.70;97.40
7562;DHT22;3822;48.784;9.174;2023-08-06T05:31:16;17.70;97.40
7562;DHT22;3822;48.784;9.174;2023-08-06T05:33:42;17.70;97.40
7562;DHT22;3822;48.784;9.174;2023-08-06T05:36:08;17.80;97.50
7562;DHT22;3822;48.784;9.174;2023-08-06T05:38:35;17.80;97.50
7562;DHT22;3822;48.784;9.174;2023-08-06T05:41:03;17.80;97.50
7562;DHT22;3822;48.784;9.174;2023-08-06T05:43:29;17.80;97.50
7562;DHT22;3822;48.784;9.174;2023-08-06T05:45:56;17.90;97.50
7562;DHT22;3822;48.784;9.174;2023-08-06T05:48:22;17.90;97.50
7562;DHT22;3822;48.784;9.174;2023-08-06T05:50:51;18.00;97.50
7562;DHT22;3822;48.784;9.174;2023-08-06T05:53:18;17.90;97.40
7562;DHT22;3822;48.784;9.174;2023-08-06T05:55:44;18.00;97.50
7562;DHT22;3822;48.784;9.174;2023-08-06T05:58:11;17.90;97.30
7562;DHT22;3822;48.784;9.174;2023-08-06T06:00:37;17.90;97.20
7562;DHT22;3822;48.784;9.174;2023-08-06T06:03:03;17.90;97.10
7562;DHT22;3822;48.784;9.174;2023-08-06T06:05:29;17.90;97.10
7562;DHT22;3822;48.784;9.174;2023-08-06T06:07:56;17.80;96.90
7562;DHT22;3822;48.784;9.174;2023-08-06T06:10:22;17.80;96.70
7562;DHT22;3822;48.784;9.174;2023-08-06T06:12:48;17.70;96.70
7562;DHT22;3822;48.784;9.174;2023-08-06T06:15:14;17.60;96.80
7562;DHT22;3822;48.784;9.174;2023-08-06T06:17:41;17.60;96.90
7562;DHT22;3822;48.784;9.174;2023-08-06T06:20:07;17.60;96.90
7562;DHT22;3822;48.784;9.174;2023-08-06T06:22:33;17.50;96.90
7562;DHT22;3822;48.784;9.174;2023-08-06T06:25:00;17.50;97.00
7562;DHT22;3822;48.784;9.174;2023-08-06T06:27:28;17.50;97.00
7562;DHT22;3822;48.784;9.174;2023-08-06T06:29:54;17.40;97.00
7562;DHT22;3822;48.784;9.174;2023-08-06T06:32:21;17.40;97.00
7562;DHT22;3822;48.784;9.174;2023-08-06T06:34:50;17.40;97.10
7562;DHT22;3822;48.784;9.174;2023-08-06T06:37:16;17.40;97.10
7562;DHT22;3822;48.784;9.174;2023-08-06T06:39:45;17.40;97.10
7562;DHT22;3822;48.784;9.174;2023-08-06T06:42:11;17.40;97.10
7562;DHT22;3822;48.784;9.174;2023-08-06T06:44:40;17.40;97.10
7562;DHT22;3822;48.784;9.174;2023-08-06T06:47:06;17.40;97.20
7562;DHT22;3822;48.784;9.174;2023-08-06T06:49:32;17.40;97.20
7562;DHT22;3822;48.784;9.174;2023-08-06T06:51:59;17.30;97.10
7562;DHT22;3822;48.784;9.174;2023-08-06T06:54:27;17.40;97.20
7562;DHT22;3822;48.784;9.174;2023-08-06T06:56:53;17.40;97.10
7562;DHT22;3822;48.784;9.174;2023-08-06T06:59:19;17.40;97.40
7562;DHT22;3822;48.784;9.174;2023-08-06T07:01:46;17.40;97.20
7562;DHT22;3822;48.784;9.174;2023-08-06T07:04:12;17.40;97.30
7562;DHT22;3822;48.784;9.174;2023-08-06T07:06:38;17.40;97.30
7562;DHT22;3822;48.784;9.174;2023-08-06T07:09:04;17.50;97.40
7562;DHT22;3822;48.784;9.174;2023-08-06T07:11:31;17.50;97.50
7562;DHT22;3822;48.784;9.174;2023-08-06T07:13:58;17.50;97.40
7562;DHT22;3822;48.784;9.174;2023-08-06T07:16:27;17.40;97.40
7562;DHT22;3822;48.784;9.174;2023-08-06T07:18:54;17.40;97.50
7562;DHT22;3822;48.784;9.174;2023-08-06T07:21:21;17.40;97.70
7562;DHT22;3822;48.784;9.174;2023-08-06T07:23:52;17.40;97.80
7562;DHT22;3822;48.784;9.174;2023-08-06T07:26:18;17.40;97.90
7562;DHT22;3822;48.784;9.174;2023-08-06T07:28:44;17.40;98.00
7562;DHT22;3822;48.784;9.174;2023-08-06T07:31:13;17.40;98.20
7562;DHT22;3822;48.784;9.174;2023-08-06T07:33:39;17.30;98.40
7562;DHT22;3822;48.784;9.174;2023-08-06T07:36:11;17.30;98.50
7562;DHT22;3822;48.784;9.174;2023-08-06T07:38:41;17.30;98.60
7562;DHT22;3822;48.784;9.174;2023-08-06T07:41:08;17.20;98.80
7562;DHT22;3822;48.784;9.174;2023-08-06T07:43:35;17.20;99.00
7562;DHT22;3822;48.784;9.174;2023-08-06T07:46:04;17.20;98.90
7562;DHT22;3822;48.784;9.174;2023-08-06T07:48:32;17.10;98.90
7562;DHT22;3822;48.784;9.174;2023-08-06T07:50:58;17.10;98.90
7562;DHT22;3822;48.784;9.174;2023-08-06T07:53:28;17.10;98.90
7562;DHT22;3822;48.784;9.174;2023-08-06T07:55:55;17.10;99.00
7562;DHT22;3822;48.784;9.174;2023-08-06T07:58:22;17.10;99.00
7562;DHT22;3822;48.784;9.174;2023-08-06T08:00:49;17.20;99.10
7562;DHT22;3822;48.784;9.174;2023-08-06T08:03:16;17.20;99.00
7562;DHT22;3822;48.784;9.174;2023-08-06T08:05:43;17.20;99.00
7562;DHT22;3822;48.784;9.174;2023-08-06T08:08:09;17.20;99.10
7562;DHT22;3822;48.784;9.174;2023-08-06T08:10:36;17.30;99.10
7562;DHT22;3822;48.784;9.174;2023-08-06T08:13:04;18.20;99.40
7562;DHT22;3822;48.784;9.174;2023-08-06T08:15:31;17.30;99.10
7562;DHT22;3822;48.784;9.174;2023-08-06T08:17:58;17.40;99.00
7562;DHT22;3822;48.784;9.174;2023-08-06T08:20:26;17.40;99.00
7562;DHT22;3822;48.784;9.174;2023-08-06T08:22:58;17.40;99.00
7562;DHT22;3822;48.784;9.174;2023-08-06T08:25:27;17.40;99.00
7562;DHT22;3822;48.784;9.174;2023-08-06T08:27:54;17.40;99.00
7562;DHT22;3822;48.784;9.174;2023-08-06T08:30:21;17.50;99.00
7562;DHT22;3822;48.784;9.174;2023-08-06T08:32:48;17.50;99.00
7562;DHT22;3822;48.784;9.174;2023-08-06T08:35:15;17.50;99.00
7562;DHT22;3822;48.784;9.174;2023-08-06T08:37:42;17.60;98.90
7562;DHT22;3822;48.784;9.174;2023-08-06T08:40:09;17.70;98.80
7562;DHT22;3822;48.784;9.174;2023-08-06T08:42:36;17.70;98.80
7562;DHT22;3822;48.784;9.174;2023-08-06T08:45:04;17.80;98.60
7562;DHT22;3822;48.784;9.174;2023-08-06T08:47:30;17.80;98.30
7562;DHT22;3822;48.784;9.174;2023-08-06T08:50:00;17.80;98.20
7562;DHT22;3822;48.784;9.174;2023-08-06T08:52:26;17.90;98.20
7562;DHT22;3822;48.784;9.174;2023-08-06T08:54:56;17.80;98.00
7562;DHT22;3822;48.784;9.174;2023-08-06T08:57:22;17.80;97.90
7562;DHT22;3822;48.784;9.174;2023-08-06T08:59:48;17.90;97.80
7562;DHT22;3822;48.784;9.174;2023-08-06T09:02:16;17.80;97.60
7562;DHT22;3822;48.784;9.174;2023-08-06T09:04:42;17.80;97.70
7562;DHT22;3822;48.784;9.174;2023-08-06T09:07:09;17.80;98.00
7562;DHT22;3822;48.784;9.174;2023-08-06T09:09:38;17.80;98.30
7562;DHT22;3822;48.784;9.174;2023-08-06T09:12:14;17.80;98.50
7562;DHT22;3822;48.784;9.174;2023-08-06T09:14:43;17.80;98.50
7562;DHT22;3822;48.784;9.174;2023-08-06T09:17:10;17.80;98.50
7562;DHT22;3822;48.784;9.174;2023-08-06T09:19:36;17.80;98.60
7562;DHT22;3822;48.784;9.174;2023-08-06T09:22:05;17.80;98.60
7562;DHT22;3822;48.784;9.174;2023-08-06T09:24:38;17.80;98.60
7562;DHT22;3822;48.784;9.174;2023-08-06T09:27:05;17.90;98.60
7562;DHT22;3822;48.784;9.174;2023-08-06T09:29:31;17.90;98.50
7562;DHT22;3822;48.784;9.174;2023-08-06T09:31:58;18.00;98.50
7562;DHT22;3822;48.784;9.174;2023-08-06T09:34:25;18.00;98.50
7562;DHT22;3822;48.784;9.174;2023-08-06T09:36:54;18.10;98.50
7562;DHT22;3822;48.784;9.174;2023-08-06T09:39:30;18.10;98.30
7562;DHT22;3822;48.784;9.174;2023-08-06T09:41:57;18.10;98.20
7562;DHT22;3822;48.784;9.174;2023-08-06T09:44:25;18.10;98.20
7562;DHT22;3822;48.784;9.174;2023-08-06T09:46:55;18.20;98.30
7562;DHT22;3822;48.784;9.174;2023-08-06T09:51:58;18.20;98.10
7562;DHT22;3822;48.784;9.174;2023-08-06T09:54:26;18.20;98.00
7562;DHT22;3822;48.784;9.174;2023-08-06T09:56:53;18.20;98.00
7562;DHT22;3822;48.784;9.174;2023-08-06T09:59:22;18.20;97.90
7562;DHT22;3822;48.784;9.174;2023-08-06T10:01:51;18.20;97.90
7562;DHT22;3822;48.784;9.174;2023-08-06T10:04:20;18.20;97.70
7562;DHT22;3822;48.784;9.174;2023-08-06T10:06:46;18.20;97.80
7562;DHT22;3822;48.784;9.174;2023-08-06T10:09:16;18.20;98.00
7562;DHT22;3822;48.784;9.174;2023-08-06T10:11:44;18.20;98.20
7562;DHT22;3822;48.784;9.174;2023-08-06T10:14:25;18.10;98.10
7562;DHT22;3822;48.784;9.174;2023-08-06T10:16:57;18.10;98.30
7562;DHT22;3822;48.784;9.174;2023-08-06T10:19:26;18.10;98.60
7562;DHT22;3822;48.784;9.174;2023-08-06T10:22:12;18.10;98.80
7562;DHT22;3822;48.784;9.174;2023-08-06T10:24:51;18.10;99.10
7562;DHT22;3822;48.784;9.174;2023-08-06T10:27:22;18.10;99.20
7562;DHT22;3822;48.784;9.174;2023-08-06T10:29:54;18.00;99.60
7562;DHT22;3822;48.784;9.174;2023-08-06T10:32:20;18.00;99.50
7562;DHT22;3822;48.784;9.174;2023-08-06T10:34:57;17.90;99.70
7562;DHT22;3822;48.784;9.174;2023-08-06T10:37:25;17.90;99.90
7562;DHT22;3822;48.784;9.174;2023-08-06T10:40:01;17.90;99.80
7562;DHT22;3822;48.784;9.174;2023-08-06T10:42:28;17.80;99.50
7562;DHT22;3822;48.784;9.174;2023-08-06T10:47:41;17.80;99.90
7562;DHT22;3822;48.784;9.174;2023-08-06T10:50:11;17.90;99.90
7562;DHT22;3822;48.784;9.174;2023-08-06T10:52:45;17.90;99.90
7562;DHT22;3822;48.784;9.174;2023-08-06T10:55:13;18.00;99.90
7562;DHT22;3822;48.784;9.174;2023-08-06T10:57:40;18.00;99.90
7562;DHT22;3822;48.784;9.174;2023-08-06T11:00:07;18.00;99.80
7562;DHT22;3822;48.784;9.174;2023-08-06T11:02:34;18.00;99.70
7562;DHT22;3822;48.784;9.174;2023-08-06T11:05:05;18.00;99.60
7562;DHT22;3822;48.784;9.174;2023-08-06T11:07:32;18.00;99.40
7562;DHT22;3822;48.784;9.174;2023-08-06T11:10:06;18.00;99.30
7562;DHT22;3822;48.784;9.174;2023-08-06T11:12:33;17.90;98.50
7562;DHT22;3822;48.784;9.174;2023-08-06T11:15:01;17.90;98.10
7562;DHT22;3822;48.784;9.174;2023-08-06T11:17:28;17.80;97.90
7562;DHT22;3822;48.784;9.174;2023-08-06T11:19:55;17.80;97.70
7562;DHT22;3822;48.784;9.174;2023-08-06T11:22:23;17.80;97.30
7562;DHT22;3822;48.784;9.174;2023-08-06T11:24:50;17.80;97.30
7562;DHT22;3822;48.784;9.174;2023-08-06T11:27:16;17.80;97.40
7562;DHT22;3822;48.784;9.174;2023-08-06T11:29:43;17.70;97.40
7562;DHT22;3822;48.784;9.174;2023-08-06T11:32:10;17.70;97.50
7562;DHT22;3822;48.784;9.174;2023-08-06T11:34:36;17.70;97.20
7562;DHT22;3822;48.784;9.174;2023-08-06T11:37:03;17.70;97.00
7562;DHT22;3822;48.784;9.174;2023-08-06T11:39:34;17.70;97.10
7562;DHT22;3822;48.784;9.174;2023-08-06T11:42:03;17.70;96.90
7562;DHT22;3822;48.784;9.174;2023-08-06T11:44:34;17.70;96.80
7562;DHT22;3822;48.784;9.174;2023-08-06T11:47:04;17.70;96.80
7562;DHT22;3822;48.784;9.174;2023-08-06T11:52:08;17.70;96.80
7562;DHT22;3822;48.784;9.174;2023-08-06T11:55:06;17.60;96.40
7562;DHT22;3822;48.784;9.174;2023-08-06T11:57:36;17.60;96.40
7562;DHT22;3822;48.784;9.174;2023-08-06T12:00:06;17.50;96.50
7562;DHT22;3822;48.784;9.174;2023-08-06T12:02:35;17.50;96.60
7562;DHT22;3822;48.784;9.174;2023-08-06T12:05:11;17.40;96.60
7562;DHT22;3822;48.784;9.174;2023-08-06T12:07:40;17.30;96.60
7562;DHT22;3822;48.784;9.174;2023-08-06T12:10:10;17.20;96.60
7562;DHT22;3822;48.784;9.174;2023-08-06T12:12:36;17.20;96.80
7562;DHT22;3822;48.784;9.174;2023-08-06T12:15:03;17.10;96.90
7562;DHT22;3822;48.784;9.174;2023-08-06T12:17:30;17.00;97.00
7562;DHT22;3822;48.784;9.174;2023-08-06T12:19:56;17.00;96.90
7562;DHT22;3822;48.784;9.174;2023-08-06T12:22:23;17.00;97.10
7562;DHT22;3822;48.784;9.174;2023-08-06T12:24:49;17.00;97.10
7562;DHT22;3822;48.784;9.174;2023-08-06T12:27:15;16.90;97.00
7562;DHT22;3822;48.784;9.174;2023-08-06T12:29:44;16.90;97.00
7562;DHT22;3822;48.784;9.174;2023-08-06T12:32:12;16.90;97.00
7562;DHT22;3822;48.784;9.174;2023-08-06T12:34:38;16.90;96.80
7562;DHT22;3822;48.784;9.174;2023-08-06T12:37:05;16.90;96.80
7562;DHT22;3822;48.784;9.174;2023-08-06T12:39:35;17.00;97.00
7562;DHT22;3822;48.784;9.174;2023-08-06T12:42:03;17.00;96.90
7562;DHT22;3822;48.784;9.174;2023-08-06T12:44:32;17.10;96.80
7562;DHT22;3822;48.784;9.174;2023-08-06T12:47:02;17.20;96.40
7562;DHT22;3822;48.784;9.174;2023-08-06T12:49:28;17.20;96.20
7562;DHT22;3822;48.784;9.174;2023-08-06T12:51:57;17.30;96.00
7562;DHT22;3822;48.784;9.174;2023-08-06T12:54:26;17.40;95.90
7562;DHT22;3822;48.784;9.174;2023-08-06T12:56:54;17.50;95.90
7562;DHT22;3822;48.784;9.174;2023-08-06T12:59:23;17.70;95.80
7562;DHT22;3822;48.784;9.174;2023-08-06T13:01:49;17.80;95.60
7562;DHT22;3822;48.784;9.174;2023-08-06T13:04:15;17.90;95.20
7562;DHT22;3822;48.784;9.174;2023-08-06T13:06:41;18.00;95.00
7562;DHT22;3822;48.784;9.174;2023-08-06T13:09:08;18.00;94.90
7562;DHT22;3822;48.784;9.174;2023-08-06T13:11:35;18.00;95.00
7562;DHT22;3822;48.784;9.174;2023-08-06T13:14:06;18.00;94.70
7562;DHT22;3822;48.784;9.174;2023-08-06T13:16:33;18.10;94.80
7562;DHT22;3822;48.784;9.174;2023-08-06T13:19:00;18.10;94.70
7562;DHT22;3822;48.784;9.174;2023-08-06T13:21:30;18.10;94.50
7562;DHT22;3822;48.784;9.174;2023-08-06T13:23:58;18.20;94.40
7562;DHT22;3822;48.784;9.174;2023-08-06T13:26:24;18.20;94.00
7562;DHT22;3822;48.784;9.174;2023-08-06T13:28:50;18.20;93.90
7562;DHT22;3822;48.784;9.174;2023-08-06T13:31:17;18.20;93.40
7562;DHT22;3822;48.784;9.174;2023-08-06T13:33:43;18.20;93.50
7562;DHT22;3822;48.784;9.174;2023-08-06T13:36:09;18.20;93.50
7562;DHT22;3822;48.784;9.174;2023-08-06T13:38:36;18.30;93.40
7562;DHT22;3822;48.784;9.174;2023-08-06T13:41:02;18.30;93.30
7562;DHT22;3822;48.784;9.174;2023-08-06T13:43:29;18.30;93.40
7562;DHT22;3822;48.784;9.174;2023-08-06T13:45:55;18.30;93.40
7562;DHT22;3822;48.784;9.174;2023-08-06T13:48:21;18.40;93.30
7562;DHT22;3822;48.784;9.174;2023-08-06T13:50:47;18.40;93.00
7562;DHT22;3822;48.784;9.174;2023-08-06T13:53:16;18.40;92.80
7562;DHT22;3822;48.784;9.174;2023-08-06T13:55:42;18.40;92.70
7562;DHT22;3822;48.784;9.174;2023-08-06T13:58:09;18.40;92.70
7562;DHT22;3822;48.784;9.174;2023-08-06T14:00:35;18.40;92.50
7562;DHT22;3822;48.784;9.174;2023-08-06T14:03:05;18.40;92.50
7562;DHT22;3822;48.784;9.174;2023-08-06T14:05:31;18.40;92.50
7562;DHT22;3822;48.784;9.174;2023-08-06T14:07:58;18.40;92.60
7562;DHT22;3822;48.784;9.174;2023-08-06T14:10:24;18.40;92.50
7562;DHT22;3822;48.784;9.174;2023-08-06T14:12:50;18.30;92.20
7562;DHT22;3822;48.784;9.174;2023-08-06T14:21:04;18.30;92.30
7562;DHT22;3822;48.784;9.174;2023-08-06T14:27:01;18.30;92.00
7562;DHT22;3822;48.784;9.174;2023-08-06T14:32:38;18.30;92.10
7562;DHT22;3822;48.784;9.174;2023-08-06T14:35:19;18.20;92.20
7562;DHT22;3822;48.784;9.174;2023-08-06T14:41:12;18.30;92.50
7562;DHT22;3822;48.784;9.174;2023-08-06T14:43:41;18.30;92.30
7562;DHT22;3822;48.784;9.174;2023-08-06T14:46:10;18.40;92.40
7562;DHT22;3822;48.784;9.174;2023-08-06T14:48:47;18.40;92.50
7562;DHT22;3822;48.784;9.174;2023-08-06T14:51:23;18.30;92.70
7562;DHT22;3822;48.784;9.174;2023-08-06T14:54:22;18.30;93.20
7562;DHT22;3822;48.784;9.174;2023-08-06T14:57:46;18.20;93.70
7562;DHT22;3822;48.784;9.174;2023-08-06T15:00:21;18.00;94.70
7562;DHT22;3822;48.784;9.174;2023-08-06T15:02:59;17.90;94.80
7562;DHT22;3822;48.784;9.174;2023-08-06T15:05:35;17.90;95.10
7562;DHT22;3822;48.784;9.174;2023-08-06T15:08:22;17.80;95.10
7562;DHT22;3822;48.784;9.174;2023-08-06T15:14:17;17.60;95.90
7562;DHT22;3822;48.784;9.174;2023-08-06T15:16:48;17.50;95.80
7562;DHT22;3822;48.784;9.174;2023-08-06T15:19:26;17.50;95.90
7562;DHT22;3822;48.784;9.174;2023-08-06T15:28:46;17.60;95.50
7562;DHT22;3822;48.784;9.174;2023-08-06T15:31:12;17.70;95.40
7562;DHT22;3822;48.784;9.174;2023-08-06T15:33:48;17.80;95.30
7562;DHT22;3822;48.784;9.174;2023-08-06T15:36:20;17.90;95.20
7562;DHT22;3822;48.784;9.174;2023-08-06T15:38:46;18.00;94.70
7562;DHT22;3822;48.784;9.174;2023-08-06T15:41:15;18.10;94.00
7562;DHT22;3822;48.784;9.174;2023-08-06T15:43:42;18.10;93.90
7562;DHT22;3822;48.784;9.174;2023-08-06T15:46:08;18.30;93.90
7562;DHT22;3822;48.784;9.174;2023-08-06T15:48:39;18.40;93.80
7562;DHT22;3822;48.784;9.174;2023-08-06T15:51:08;18.50;93.40
7562;DHT22;3822;48.784;9.174;2023-08-06T15:53:35;18.70;93.40
7562;DHT22;3822;48.784;9.174;2023-08-06T15:56:03;18.80;92.80
7562;DHT22;3822;48.784;9.174;2023-08-06T15:58:31;19.00;92.50
7562;DHT22;3822;48.784;9.174;2023-08-06T16:00:59;19.10;92.30
7562;DHT22;3822;48.784;9.174;2023-08-06T16:03:29;19.20;91.90
7562;DHT22;3822;48.784;9.174;2023-08-06T16:05:55;19.30;91.40
7562;DHT22;3822;48.784;9.174;2023-08-06T16:08:24;19.40;91.00
7562;DHT22;3822;48.784;9.174;2023-08-06T16:10:56;19.30;91.00
7562;DHT22;3822;48.784;9.174;2023-08-06T16:13:22;19.30;90.80
7562;DHT22;3822;48.784;9.174;2023-08-06T16:15:51;19.30;90.80
7562;DHT22;3822;48.784;9.174;2023-08-06T16:18:17;19.20;90.80
7562;DHT22;3822;48.784;9.174;2023-08-06T16:20:44;19.20;90.90
7562;DHT22;3822;48.784;9.174;2023-08-06T16:23:16;19.10;90.60
7562;DHT22;3822;48.784;9.174;2023-08-06T16:25:47;19.10;90.40
7562;DHT22;3822;48.784;9.174;2023-08-06T16:28:23;19.00;90.50
7562;DHT22;3822;48.784;9.174;2023-08-06T16:30:55;18.90;90.70
7562;DHT22;3822;48.784;9.174;2023-08-06T16:33:22;18.90;90.90
7562;DHT22;3822;48.784;9.174;2023-08-06T16:35:51;18.90;91.00
7562;DHT22;3822;48.784;9.174;2023-08-06T16:38:17;18.80;91.00
7562;DHT22;3822;48.784;9.174;2023-08-06T16:40:52;18.70;90.90
7562;DHT22;3822;48.784;9.174;2023-08-06T16:43:22;18.60;91.10
7562;DHT22;3822;48.784;9.174;2023-08-06T16:45:52;18.50;91.20
7562;DHT22;3822;48.784;9.174;2023-08-06T16:48:22;18.40;91.20
7562;DHT22;3822;48.784;9.174;2023-08-06T16:50:57;18.40;91.40
7562;DHT22;3822;48.784;9.174;2023-08-06T16:53:28;18.30;91.60